sensor_id;sensor_type;location;lat;lon;timestamp;temperature;humidity
9881;DHT22;4979;51.014;6.678;2022-10-16T00:01:38;14.00;99.90
9881;DHT22;4979;51.014;6.678;2022-10-16T00:04:03;14.00;99.90
9881;DHT22;4979;51.014;6.678;2022-10-16T00:06:30;14.00;99.90
9881;DHT22;4979;51.014;6.678;2022-10-16T00:08:56;14.10;99.90
9881;DHT22;4979;51.014;6.678;2022-10-16T00:11:28;14.10;99.90
9881;DHT22;4979;51.014;6.678;2022-10-16T00:13:59;14.10;99.90
9881;DHT22;4979;51.014;6.678;2022-10-16T00:16:25;14.10;99.90
9881;DHT22;4979;51.014;6.678;2022-10-16T00:18:51;14.10;99.90
9881;DHT22;4979;51.014;6.678;2022-10-16T00:21:20;14.10;99.90
9881;DHT22;4979;51.014;6.678;2022-10-16T00:23:46;14.20;99.90
9881;DHT22;4979;51.014;6.678;2022-10-16T00:26:15;14.20;99.90
9881;DHT22;4979;51.014;6.678;2022-10-16T00:28:41;14.20;99.90
9881;DHT22;4979;51.014;6.678;2022-10-16T00:31:11;14.10;99.90
9881;DHT22;4979;51.014;6.678;2022-10-16T00:33:38;14.20;99.90
9881;DHT22;4979;51.014;6.678;2022-10-16T00:36:05;14.10;99.90
9881;DHT22;4979;51.014;6.678;2022-10-16T00:38:31;14.10;99.90
9881;DHT22;4979;51.014;6.678;2022-10-16T00:40:56;14.00;99.90
9881;DHT22;4979;51.014;6.678;2022-10-16T00:43:47;14.00;99.90
9881;DHT22;4979;51.014;6.678;2022-10-16T00:46:22;14.00;99.90
9881;DHT22;4979;51.014;6.678;2022-10-16T00:48:55;13.90;99.90
9881;DHT22;4979;51.014;6.678;2022-10-16T00:51:26;14.00;99.90
9881;DHT22;4979;51.014;6.678;2022-10-16T00:53:54;13.90;99.90
9881;DHT22;4979;51.014;6.678;2022-10-16T00:56:20;13.90;99.90
9881;DHT22;4979;51.014;6.678;2022-10-16T00:58:46;13.90;99.90
9881;DHT22;4979;51.014;6.678;2022-10-16T01:01:11;13.70;99.90
9881;DHT22;4979;51.014;6.678;2022-10-16T01:03:37;13.80;99.90
9881;DHT22;4979;51.014;6.678;2022-10-16T01:06:25;13.70;99.90
9881;DHT22;4979;51.014;6.678;2022-10-16T01:09:28;13.70;99.90
9881;DHT22;4979;51.014;6.678;2022-10-16T01:12:15;13.70;99.90
9881;DHT22;4979;51.014;6.678;2022-10-16T01:20:47;13.60;99.90
9881;DHT22;4979;51.014;6.678;2022-10-16T01:23:17;13.70;99.90
9881;DHT22;4979;51.014;6.678;2022-10-16T01:31:19;13.60;99.90
9881;DHT22;4979;51.014;6.678;2022-10-16T01:33:50;13.60;99.90
9881;DHT22;4979;51.014;6.678;2022-10-16T01:36:23;13.70;99.90
9881;DHT22;4979;51.014;6.678;2022-10-16T01:38:53;13.70;99.90
9881;DHT22;4979;51.014;6.678;2022-10-16T01:41:26;13.60;99.90
9881;DHT22;4979;51.014;6.678;2022-10-16T01:44:06;13.70;99.90
9881;DHT22;4979;51.014;6.678;2022-10-16T01:46:36;13.70;99.90
9881;DHT22;4979;51.014;6.678;2022-10-16T01:49:03;13.70;99.90
9881;DHT22;4979;51.014;6.678;2022-10-16T01:51:30;13.70;99.90
9881;DHT22;4979;51.014;6.678;2022-10-16T01:54:00;13.70;99.90
9881;DHT22;4979;51.014;6.678;2022-10-16T01:56:27;13.70;99.90
9881;DHT22;4979;51.014;6.678;2022-10-16T01:59:05;13.70;99.90
9881;DHT22;4979;51.014;6.678;2022-10-16T02:01:33;13.70;99.90
9881;DHT22;4979;51.014;6.678;2022-10-16T02:04:14;13.70;99.90
9881;DHT22;4979;51.014;6.678;2022-10-16T02:06:40;13.80;99.90
9881;DHT22;4979;51.014;6.678;2022-10-16T02:09:06;13.80;99.90
9881;DHT22;4979;51.014;6.678;2022-10-16T02:11:32;13.70;99.90
9881;DHT22;4979;51.014;6.678;2022-10-16T02:14:01;13.80;99.90
9881;DHT22;4979;51.014;6.678;2022-10-16T02:16:40;13.80;99.90
9881;DHT22;4979;51.014;6.678;2022-10-16T02:19:07;13.80;99.90
9881;DHT22;4979;51.014;6.678;2022-10-16T02:24:17;13.90;99.90
9881;DHT22;4979;51.014;6.678;2022-10-16T02:29:30;13.90;99.90
9881;DHT22;4979;51.014;6.678;2022-10-16T02:32:02;13.90;99.90
9881;DHT22;4979;51.014;6.678;2022-10-16T02:34:30;13.90;99.90
9881;DHT22;4979;51.014;6.678;2022-10-16T02:36:58;13.90;99.90
9881;DHT22;4979;51.014;6.678;2022-10-16T02:39:27;13.90;99.90
9881;DHT22;4979;51.014;6.678;2022-10-16T02:41:53;14.00;99.90
9881;DHT22;4979;51.014;6.678;2022-10-16T02:44:19;14.00;99.90
9881;DHT22;4979;51.014;6.678;2022-10-16T02:46:44;14.00;99.90
9881;DHT22;4979;51.014;6.678;2022-10-16T02:49:10;13.90;99.90
9881;DHT22;4979;51.014;6.678;2022-10-16T02:51:35;13.90;99.90
9881;DHT22;4979;51.014;6.678;2022-10-16T02:54:02;13.90;99.90
9881;DHT22;4979;51.014;6.678;2022-10-16T02:56:28;13.90;99.90
9881;DHT22;4979;51.014;6.678;2022-10-16T02:58:54;13.80;99.90
9881;DHT22;4979;51.014;6.678;2022-10-16T03:01:20;13.80;99.90
9881;DHT22;4979;51.014;6.678;2022-10-16T03:03:45;13.80;99.90
9881;DHT22;4979;51.014;6.678;2022-10-16T03:06:11;13.80;99.90
9881;DHT22;4979;51.014;6.678;2022-10-16T03:08:37;13.80;99.90
9881;DHT22;4979;51.014;6.678;2022-10-16T03:11:02;13.80;99.90
9881;DHT22;4979;51.014;6.678;2022-10-16T03:13:28;13.70;99.90
9881;DHT22;4979;51.014;6.678;2022-10-16T03:15:53;13.70;99.90
9881;DHT22;4979;51.014;6.678;2022-10-16T03:18:19;13.70;99.90
9881;DHT22;4979;51.014;6.678;2022-10-16T03:20:44;13.60;99.90
9881;DHT22;4979;51.014;6.678;2022-10-16T03:23:10;13.60;99.90
9881;DHT22;4979;51.014;6.678;2022-10-16T03:25:36;13.60;99.90
9881;DHT22;4979;51.014;6.678;2022-10-16T03:28:01;13.60;99.90
9881;DHT22;4979;51.014;6.678;2022-10-16T03:30:27;13.60;99.90
9881;DHT22;4979;51.014;6.678;2022-10-16T03:32:52;13.60;99.90
9881;DHT22;4979;51.014;6.678;2022-10-16T03:35:23;13.60;99.90
9881;DHT22;4979;51.014;6.678;2022-10-16T03:37:49;13.70;99.90
9881;DHT22;4979;51.014;6.678;2022-10-16T03:40:15;13.70;99.90
9881;DHT22;4979;51.014;6.678;2022-10-16T03:42:42;13.70;99.90
9881;DHT22;4979;51.014;6.678;2022-10-16T03:45:09;13.60;99.90
9881;DHT22;4979;51.014;6.678;2022-10-16T03:47:35;13.60;99.90
9881;DHT22;4979;51.014;6.678;2022-10-16T03:50:00;13.60;99.90
9881;DHT22;4979;51.014;6.678;2022-10-16T03:52:26;13.50;99.90
9881;DHT22;4979;51.014;6.678;2022-10-16T03:54:51;13.60;99.90
9881;DHT22;4979;51.014;6.678;2022-10-16T03:57:17;13.60;99.90
9881;DHT22;4979;51.014;6.678;2022-10-16T03:59:43;13.60;99.90
9881;DHT22;4979;51.014;6.678;2022-10-16T04:02:09;13.60;99.90
9881;DHT22;4979;51.014;6.678;2022-10-16T04:04:34;13.70;99.90
9881;DHT22;4979;51.014;6.678;2022-10-16T04:07:00;13.60;99.90
9881;DHT22;4979;51.014;6.678;2022-10-16T04:09:26;13.60;99.90
9881;DHT22;4979;51.014;6.678;2022-10-16T04:11:52;13.70;99.90
9881;DHT22;4979;51.014;6.678;2022-10-16T04:14:17;13.70;99.90
9881;DHT22;4979;51.014;6.678;2022-10-16T04:16:43;13.70;99.90
9881;DHT22;4979;51.014;6.678;2022-10-16T04:19:09;13.60;99.90
9881;DHT22;4979;51.014;6.678;2022-10-16T04:21:36;13.60;99.90
9881;DHT22;4979;51.014;6.678;2022-10-16T04:24:01;13.50;99.90
9881;DHT22;4979;51.014;6.678;2022-10-16T04:26:27;13.50;99.90
9881;DHT22;4979;51.014;6.678;2022-10-16T04:28:53;13.50;99.90
9881;DHT22;4979;51.014;6.678;2022-10-16T04:31:19;13.50;99.90
9881;DHT22;4979;51.014;6.678;2022-10-16T04:33:46;13.40;99.90
9881;DHT22;4979;51.014;6.678;2022-10-16T04:36:11;13.40;99.90
9881;DHT22;4979;51.014;6.678;2022-10-16T04:38:37;13.40;99.90
9881;DHT22;4979;51.014;6.678;2022-10-16T04:41:05;13.40;99.90
9881;DHT22;4979;51.014;6.678;2022-10-16T04:43:31;13.40;99.90
9881;DHT22;4979;51.014;6.678;2022-10-16T04:45:56;13.40;99.90
9881;DHT22;4979;51.014;6.678;2022-10-16T04:48:22;13.30;99.90
9881;DHT22;4979;51.014;6.678;2022-10-16T04:50:48;13.40;99.90
9881;DHT22;4979;51.014;6.678;2022-10-16T04:53:13;13.40;99.90
9881;DHT22;4979;51.014;6.678;2022-10-16T04:55:39;13.30;99.90
9881;DHT22;4979;51.014;6.678;2022-10-16T04:58:06;13.40;99.90
9881;DHT22;4979;51.014;6.678;2022-10-16T05:00:33;13.40;99.90
9881;DHT22;4979;51.014;6.678;2022-10-16T05:02:59;13.30;99.90
9881;DHT22;4979;51.014;6.678;2022-10-16T05:05:26;13.30;99.90
9881;DHT22;4979;51.014;6.678;2022-10-16T05:07:52;13.30;99.90
9881;DHT22;4979;51.014;6.678;2022-10-16T05:10:17;13.30;99.90
9881;DHT22;4979;51.014;6.678;2022-10-16T05:12:43;13.30;99.90
9881;DHT22;4979;51.014;6.678;2022-10-16T05:15:09;13.30;99.90
9881;DHT22;4979;51.014;6.678;2022-10-16T05:17:35;13.40;99.90
9881;DHT22;4979;51.014;6.678;2022-10-16T05:20:00;13.30;99.90
9881;DHT22;4979;51.014;6.678;2022-10-16T05:22:26;13.30;99.90
9881;DHT22;4979;51.014;6.678;2022-10-16T05:24:51;13.30;99.90
9881;DHT22;4979;51.014;6.678;2022-10-16T05:27:17;13.30;99.90
9881;DHT22;4979;51.014;6.678;2022-10-16T05:29:46;13.30;99.90
9881;DHT22;4979;51.014;6.678;2022-10-16T05:32:12;13.30;99.90
9881;DHT22;4979;51.014;6.678;2022-10-16T05:34:38;13.40;99.90
9881;DHT22;4979;51.014;6.678;2022-10-16T05:37:04;13.40;99.90
9881;DHT22;4979;51.014;6.678;2022-10-16T05:39:29;13.40;99.90
9881;DHT22;4979;51.014;6.678;2022-10-16T05:41:55;13.40;99.90
9881;DHT22;4979;51.014;6.678;2022-10-16T05:44:20;13.40;99.90
9881;DHT22;4979;51.014;6.678;2022-10-16T05:46:46;13.40;99.90
9881;DHT22;4979;51.014;6.678;2022-10-16T05:49:12;13.50;99.90
9881;DHT22;4979;51.014;6.678;2022-10-16T05:51:37;13.50;99.90
9881;DHT22;4979;51.014;6.678;2022-10-16T05:54:03;13.60;99.90
9881;DHT22;4979;51.014;6.678;2022-10-16T05:56:28;13.60;99.90
9881;DHT22;4979;51.014;6.678;2022-10-16T05:58:55;13.60;99.90
9881;DHT22;4979;51.014;6.678;2022-10-16T06:01:20;13.60;99.90
9881;DHT22;4979;51.014;6.678;2022-10-16T06:03:50;13.60;99.90
9881;DHT22;4979;51.014;6.678;2022-10-16T06:06:17;13.60;99.90
9881;DHT22;4979;51.014;6.678;2022-10-16T06:08:44;13.60;99.90
9881;DHT22;4979;51.014;6.678;2022-10-16T06:11:18;13.70;99.90
9881;DHT22;4979;51.014;6.678;2022-10-16T06:13:44;13.60;99.90
9881;DHT22;4979;51.014;6.678;2022-10-16T06:16:12;13.60;99.90
9881;DHT22;4979;51.014;6.678;2022-10-16T06:18:38;13.60;99.90
9881;DHT22;4979;51.014;6.678;2022-10-16T06:21:16;13.60;99.90
9881;DHT22;4979;51.014;6.678;2022-10-16T06:23:41;13.70;99.90
9881;DHT22;4979;51.014;6.678;2022-10-16T06:26:11;13.60;99.90
9881;DHT22;4979;51.014;6.678;2022-10-16T06:28:38;13.70;99.90
9881;DHT22;4979;51.014;6.678;2022-10-16T06:31:05;13.70;99.90
9881;DHT22;4979;51.014;6.678;2022-10-16T06:33:31;13.70;99.90
9881;DHT22;4979;51.014;6.678;2022-10-16T06:36:05;13.80;99.90
9881;DHT22;4979;51.014;6.678;2022-10-16T06:38:31;13.90;99.90
9881;DHT22;4979;51.014;6.678;2022-10-16T06:40:57;13.90;99.90
9881;DHT22;4979;51.014;6.678;2022-10-16T06:43:23;14.00;99.90
9881;DHT22;4979;51.014;6.678;2022-10-16T06:45:56;14.10;99.90
9881;DHT22;4979;51.014;6.678;2022-10-16T06:48:22;14.20;99.90
9881;DHT22;4979;51.014;6.678;2022-10-16T06:51:18;14.20;99.90
9881;DHT22;4979;51.014;6.678;2022-10-16T06:53:47;14.20;99.90
9881;DHT22;4979;51.014;6.678;2022-10-16T06:58:48;14.40;99.90
9881;DHT22;4979;51.014;6.678;2022-10-16T07:01:15;14.40;99.90
9881;DHT22;4979;51.014;6.678;2022-10-16T07:03:42;14.50;99.90
9881;DHT22;4979;51.014;6.678;2022-10-16T07:06:09;14.40;99.90
9881;DHT22;4979;51.014;6.678;2022-10-16T07:08:37;14.50;99.90
9881;DHT22;4979;51.014;6.678;2022-10-16T07:11:06;14.40;99.90
9881;DHT22;4979;51.014;6.678;2022-10-16T07:13:35;14.40;99.90
9881;DHT22;4979;51.014;6.678;2022-10-16T07:16:09;14.40;99.90
9881;DHT22;4979;51.014;6.678;2022-10-16T07:18:36;14.40;99.90
9881;DHT22;4979;51.014;6.678;2022-10-16T07:21:09;14.30;99.90
9881;DHT22;4979;51.014;6.678;2022-10-16T07:23:35;14.30;99.90
9881;DHT22;4979;51.014;6.678;2022-10-16T07:26:00;14.40;99.90
9881;DHT22;4979;51.014;6.678;2022-10-16T07:28:26;14.50;99.90
9881;DHT22;4979;51.014;6.678;2022-10-16T07:30:52;14.50;99.90
9881;DHT22;4979;51.014;6.678;2022-10-16T07:33:18;14.60;99.90
9881;DHT22;4979;51.014;6.678;2022-10-16T07:35:51;14.50;99.90
9881;DHT22;4979;51.014;6.678;2022-10-16T07:38:17;14.50;99.90
9881;DHT22;4979;51.014;6.678;2022-10-16T07:40:43;14.50;99.90
9881;DHT22;4979;51.014;6.678;2022-10-16T07:43:10;14.40;99.90
9881;DHT22;4979;51.014;6.678;2022-10-16T07:45:35;14.30;99.90
9881;DHT22;4979;51.014;6.678;2022-10-16T07:48:01;14.30;99.90
9881;DHT22;4979;51.014;6.678;2022-10-16T07:50:27;14.30;99.90
9881;DHT22;4979;51.014;6.678;2022-10-16T07:52:52;14.50;99.90
9881;DHT22;4979;51.014;6.678;2022-10-16T07:55:18;14.70;99.90
9881;DHT22;4979;51.014;6.678;2022-10-16T07:57:43;14.80;99.90
9881;DHT22;4979;51.014;6.678;2022-10-16T08:00:09;14.90;99.90
9881;DHT22;4979;51.014;6.678;2022-10-16T08:02:39;15.10;99.90
9881;DHT22;4979;51.014;6.678;2022-10-16T08:05:05;15.20;99.90
9881;DHT22;4979;51.014;6.678;2022-10-16T08:07:31;15.20;99.90
9881;DHT22;4979;51.014;6.678;2022-10-16T08:09:57;15.40;99.90
9881;DHT22;4979;51.014;6.678;2022-10-16T08:12:24;15.50;99.90
9881;DHT22;4979;51.014;6.678;2022-10-16T08:14:49;15.60;99.90
9881;DHT22;4979;51.014;6.678;2022-10-16T08:17:15;15.70;99.90
9881;DHT22;4979;51.014;6.678;2022-10-16T08:19:44;15.70;99.90
9881;DHT22;4979;51.014;6.678;2022-10-16T08:22:10;15.90;99.90
9881;DHT22;4979;51.014;6.678;2022-10-16T08:24:36;16.00;99.90
9881;DHT22;4979;51.014;6.678;2022-10-16T08:27:02;16.10;99.90
9881;DHT22;4979;51.014;6.678;2022-10-16T08:29:28;16.10;99.90
9881;DHT22;4979;51.014;6.678;2022-10-16T08:31:54;16.20;99.90
9881;DHT22;4979;51.014;6.678;2022-10-16T08:34:19;16.20;99.90
9881;DHT22;4979;51.014;6.678;2022-10-16T08:36:45;16.20;99.90
9881;DHT22;4979;51.014;6.678;2022-10-16T08:39:10;16.30;99.90
9881;DHT22;4979;51.014;6.678;2022-10-16T08:44:28;16.40;99.90
9881;DHT22;4979;51.014;6.678;2022-10-16T08:47:22;16.50;99.90
9881;DHT22;4979;51.014;6.678;2022-10-16T08:49:59;16.60;99.90
9881;DHT22;4979;51.014;6.678;2022-10-16T08:52:32;16.60;99.90
9881;DHT22;4979;51.014;6.678;2022-10-16T08:55:00;16.50;99.90
9881;DHT22;4979;51.014;6.678;2022-10-16T08:57:27;16.60;99.90
9881;DHT22;4979;51.014;6.678;2022-10-16T08:59:54;16.70;99.90
9881;DHT22;4979;51.014;6.678;2022-10-16T09:02:37;16.80;99.90
9881;DHT22;4979;51.014;6.678;2022-10-16T09:08:36;17.10;99.90
9881;DHT22;4979;51.014;6.678;2022-10-16T09:14:03;17.20;99.90
9881;DHT22;4979;51.014;6.678;2022-10-16T09:16:41;17.40;99.90
9881;DHT22;4979;51.014;6.678;2022-10-16T09:19:23;17.30;99.90
9881;DHT22;4979;51.014;6.678;2022-10-16T09:21:51;17.30;99.90
9881;DHT22;4979;51.014;6.678;2022-10-16T09:24:21;17.40;99.90
9881;DHT22;4979;51.014;6.678;2022-10-16T09:26:47;17.40;99.90
9881;DHT22;4979;51.014;6.678;2022-10-16T09:29:14;17.40;99.90
9881;DHT22;4979;51.014;6.678;2022-10-16T09:31:40;17.50;99.90
9881;DHT22;4979;51.014;6.678;2022-10-16T09:34:06;17.50;99.90
9881;DHT22;4979;51.014;6.678;2022-10-16T09:36:41;17.50;99.90
9881;DHT22;4979;51.014;6.678;2022-10-16T09:39:10;17.60;99.90
9881;DHT22;4979;51.014;6.678;2022-10-16T09:41:43;17.40;99.90
9881;DHT22;4979;51.014;6.678;2022-10-16T09:44:26;17.40;99.90
9881;DHT22;4979;51.014;6.678;2022-10-16T09:47:12;17.30;99.90
9881;DHT22;4979;51.014;6.678;2022-10-16T09:49:38;17.50;99.90
9881;DHT22;4979;51.014;6.678;2022-10-16T09:52:12;17.50;99.90
9881;DHT22;4979;51.014;6.678;2022-10-16T09:54:52;17.40;99.90
9881;DHT22;4979;51.014;6.678;2022-10-16T09:57:19;17.40;99.90
9881;DHT22;4979;51.014;6.678;2022-10-16T09:59:49;17.40;99.90
9881;DHT22;4979;51.014;6.678;2022-10-16T10:02:16;17.50;99.90
9881;DHT22;4979;51.014;6.678;2022-10-16T10:04:51;17.40;99.90
9881;DHT22;4979;51.014;6.678;2022-10-16T10:07:24;17.70;99.90
9881;DHT22;4979;51.014;6.678;2022-10-16T10:09:52;17.70;99.90
9881;DHT22;4979;51.014;6.678;2022-10-16T10:12:29;17.80;99.90
9881;DHT22;4979;51.014;6.678;2022-10-16T10:15:03;17.90;99.90
9881;DHT22;4979;51.014;6.678;2022-10-16T10:17:29;17.80;99.90
9881;DHT22;4979;51.014;6.678;2022-10-16T10:20:00;17.60;99.90
9881;DHT22;4979;51.014;6.678;2022-10-16T10:38:43;18.00;99.90
9881;DHT22;4979;51.014;6.678;2022-10-16T10:41:55;17.90;99.90
9881;DHT22;4979;51.014;6.678;2022-10-16T10:50:02;17.80;99.90
9881;DHT22;4979;51.014;6.678;2022-10-16T10:55:10;17.90;99.90
9881;DHT22;4979;51.014;6.678;2022-10-16T11:05:59;17.90;99.90
9881;DHT22;4979;51.014;6.678;2022-10-16T11:08:48;17.80;99.90
9881;DHT22;4979;51.014;6.678;2022-10-16T11:11:29;18.00;99.90
9881;DHT22;4979;51.014;6.678;2022-10-16T11:14:19;18.30;99.90
9881;DHT22;4979;51.014;6.678;2022-10-16T11:17:08;18.20;99.90
9881;DHT22;4979;51.014;6.678;2022-10-16T11:22:45;18.10;99.90
9881;DHT22;4979;51.014;6.678;2022-10-16T11:25:28;17.40;99.90
9881;DHT22;4979;51.014;6.678;2022-10-16T11:28:29;18.00;99.90
9881;DHT22;4979;51.014;6.678;2022-10-16T11:31:19;18.00;99.90
9881;DHT22;4979;51.014;6.678;2022-10-16T11:41:42;18.10;99.90
9881;DHT22;4979;51.014;6.678;2022-10-16T11:50:02;18.50;99.90
9881;DHT22;4979;51.014;6.678;2022-10-16T11:55:42;18.70;99.90
9881;DHT22;4979;51.014;6.678;2022-10-16T12:06:31;18.70;99.90
9881;DHT22;4979;51.014;6.678;2022-10-16T12:09:00;18.70;99.90
9881;DHT22;4979;51.014;6.678;2022-10-16T12:14:03;18.60;99.90
9881;DHT22;4979;51.014;6.678;2022-10-16T12:16:29;18.50;99.90
9881;DHT22;4979;51.014;6.678;2022-10-16T12:19:12;18.50;99.90
9881;DHT22;4979;51.014;6.678;2022-10-16T12:21:38;18.50;99.90
9881;DHT22;4979;51.014;6.678;2022-10-16T12:24:04;18.50;99.90
9881;DHT22;4979;51.014;6.678;2022-10-16T12:26:33;18.60;99.90
9881;DHT22;4979;51.014;6.678;2022-10-16T12:29:44;18.80;99.90
9881;DHT22;4979;51.014;6.678;2022-10-16T12:32:05;19.00;99.90
9881;DHT22;4979;51.014;6.678;2022-10-16T12:39:38;19.00;99.90
9881;DHT22;4979;51.014;6.678;2022-10-16T12:42:19;19.00;99.90
9881;DHT22;4979;51.014;6.678;2022-10-16T12:44:45;19.00;99.90
9881;DHT22;4979;51.014;6.678;2022-10-16T12:49:58;19.10;99.90
9881;DHT22;4979;51.014;6.678;2022-10-16T12:54:59;19.40;99.90
9881;DHT22;4979;51.014;6.678;2022-10-16T13:11:24;19.90;99.90
9881;DHT22;4979;51.014;6.678;2022-10-16T13:19:33;20.10;99.90
9881;DHT22;4979;51.014;6.678;2022-10-16T13:23:27;20.20;99.90
9881;DHT22;4979;51.014;6.678;2022-10-16T13:25:26;20.20;99.90
9881;DHT22;4979;51.014;6.678;2022-10-16T13:28:03;20.20;99.90
9881;DHT22;4979;51.014;6.678;2022-10-16T13:30:31;20.30;99.90
9881;DHT22;4979;51.014;6.678;2022-10-16T13:33:33;20.40;99.90
9881;DHT22;4979;51.014;6.678;2022-10-16T13:36:29;20.30;99.90
9881;DHT22;4979;51.014;6.678;2022-10-16T13:39:21;20.40;99.90
9881;DHT22;4979;51.014;6.678;2022-10-16T13:44:47;20.50;99.90
9881;DHT22;4979;51.014;6.678;2022-10-16T13:47:25;20.40;99.90
9881;DHT22;4979;51.014;6.678;2022-10-16T13:50:05;20.10;99.90
9881;DHT22;4979;51.014;6.678;2022-10-16T13:52:32;19.90;99.90
9881;DHT22;4979;51.014;6.678;2022-10-16T13:54:58;20.00;99.90
9881;DHT22;4979;51.014;6.678;2022-10-16T13:57:24;19.90;99.90
9881;DHT22;4979;51.014;6.678;2022-10-16T13:59:50;19.90;99.90
9881;DHT22;4979;51.014;6.678;2022-10-16T14:02:31;19.80;99.90
9881;DHT22;4979;51.014;6.678;2022-10-16T14:05:02;19.70;99.90
9881;DHT22;4979;51.014;6.678;2022-10-16T14:07:33;19.70;99.90
9881;DHT22;4979;51.014;6.678;2022-10-16T14:10:06;19.70;99.90
9881;DHT22;4979;51.014;6.678;2022-10-16T14:12:33;19.70;99.90
9881;DHT22;4979;51.014;6.678;2022-10-16T14:14:59;19.70;99.90
9881;DHT22;4979;51.014;6.678;2022-10-16T14:17:34;19.70;99.90
9881;DHT22;4979;51.014;6.678;2022-10-16T14:20:05;19.80;99.90
9881;DHT22;4979;51.014;6.678;2022-10-16T14:22:39;19.80;99.90
9881;DHT22;4979;51.014;6.678;2022-10-16T14:25:24;19.70;99.90
9881;DHT22;4979;51.014;6.678;2022-10-16T14:30:50;19.50;99.90
9881;DHT22;4979;51.014;6.678;2022-10-16T14:33:31;19.40;99.90
9881;DHT22;4979;51.014;6.678;2022-10-16T14:36:12;19.40;99.90
9881;DHT22;4979;51.014;6.678;2022-10-16T14:39:04;19.30;99.90
9881;DHT22;4979;51.014;6.678;2022-10-16T14:41:32;19.20;99.90
9881;DHT22;4979;51.014;6.678;2022-10-16T14:44:09;19.20;99.90
9881;DHT22;4979;51.014;6.678;2022-10-16T14:46:37;19.10;99.90
9881;DHT22;4979;51.014;6.678;2022-10-16T14:49:17;19.10;99.90
9881;DHT22;4979;51.014;6.678;2022-10-16T14:51:45;19.00;99.90
9881;DHT22;4979;51.014;6.678;2022-10-16T14:54:12;19.00;99.90
9881;DHT22;4979;51.014;6.678;2022-10-16T14:56:56;19.00;99.90
9881;DHT22;4979;51.014;6.678;2022-10-16T14:59:28;18.90;99.90
9881;DHT22;4979;51.014;6.678;2022-10-16T15:01:54;18.80;99.90
9881;DHT22;4979;51.014;6.678;2022-10-16T15:04:19;18.80;99.90
9881;DHT22;4979;51.014;6.678;2022-10-16T15:06:45;18.70;99.90
9881;DHT22;4979;51.014;6.678;2022-10-16T15:09:11;18.70;99.90
9881;DHT22;4979;51.014;6.678;2022-10-16T15:11:36;18.70;99.90
9881;DHT22;4979;51.014;6.678;2022-10-16T15:14:03;18.70;99.90
9881;DHT22;4979;51.014;6.678;2022-10-16T15:16:29;18.70;99.90
9881;DHT22;4979;51.014;6.678;2022-10-16T15:18:54;18.60;99.90
9881;DHT22;4979;51.014;6.678;2022-10-16T15:21:29;18.60;99.90
9881;DHT22;4979;51.014;6.678;2022-10-16T15:23:56;18.60;99.90
9881;DHT22;4979;51.014;6.678;2022-10-16T15:26:26;18.60;99.90
9881;DHT22;4979;51.014;6.678;2022-10-16T15:28:52;18.60;99.90
9881;DHT22;4979;51.014;6.678;2022-10-16T15:31:17;18.50;99.90
9881;DHT22;4979;51.014;6.678;2022-10-16T15:33:43;18.50;99.90
9881;DHT22;4979;51.014;6.678;2022-10-16T15:36:09;18.40;99.90
9881;DHT22;4979;51.014;6.678;2022-10-16T15:38:35;18.40;99.90
9881;DHT22;4979;51.014;6.678;2022-10-16T15:41:01;18.30;99.90
9881;DHT22;4979;51.014;6.678;2022-10-16T15:43:26;18.20;99.90
9881;DHT22;4979;51.014;6.678;2022-10-16T15:46:06;18.30;99.90
9881;DHT22;4979;51.014;6.678;2022-10-16T15:48:32;18.20;99.90
9881;DHT22;4979;51.014;6.678;2022-10-16T15:50:59;18.20;99.90
9881;DHT22;4979;51.014;6.678;2022-10-16T15:53:24;18.10;99.90
9881;DHT22;4979;51.014;6.678;2022-10-16T15:55:50;18.10;99.90
9881;DHT22;4979;51.014;6.678;2022-10-16T15:58:16;18.10;99.90
9881;DHT22;4979;51.014;6.678;2022-10-16T16:00:41;18.00;99.90
9881;DHT22;4979;51.014;6.678;2022-10-16T16:03:07;18.00;99.90
9881;DHT22;4979;51.014;6.678;2022-10-16T16:05:32;18.00;99.90
9881;DHT22;4979;51.014;6.678;2022-10-16T16:07:58;17.90;99.90
9881;DHT22;4979;51.014;6.678;2022-10-16T16:10:24;17.90;99.90
9881;DHT22;4979;51.014;6.678;2022-10-16T16:12:50;17.80;99.90
9881;DHT22;4979;51.014;6.678;2022-10-16T16:15:19;17.80;99.90
9881;DHT22;4979;51.014;6.678;2022-10-16T16:17:45;17.80;99.90
9881;DHT22;4979;51.014;6.678;2022-10-16T16:20:11;17.70;99.90
9881;DHT22;4979;51.014;6.678;2022-10-16T16:22:37;17.70;99.90
9881;DHT22;4979;51.014;6.678;2022-10-16T16:25:03;17.70;99.90
9881;DHT22;4979;51.014;6.678;2022-10-16T16:27:28;17.60;99.90
9881;DHT22;4979;51.014;6.678;2022-10-16T16:29:59;17.60;99.90
9881;DHT22;4979;51.014;6.678;2022-10-16T16:32:24;17.50;99.90
9881;DHT22;4979;51.014;6.678;2022-10-16T16:34:50;17.50;99.90
9881;DHT22;4979;51.014;6.678;2022-10-16T16:37:16;17.50;99.90
9881;DHT22;4979;51.014;6.678;2022-10-16T16:39:42;17.40;99.90
9881;DHT22;4979;51.014;6.678;2022-10-16T16:42:07;17.30;99.90
9881;DHT22;4979;51.014;6.678;2022-10-16T16:44:35;17.30;99.90
9881;DHT22;4979;51.014;6.678;2022-10-16T16:47:04;17.30;99.90
9881;DHT22;4979;51.014;6.678;2022-10-16T16:49:30;17.30;99.90
9881;DHT22;4979;51.014;6.678;2022-10-16T16:51:56;17.30;99.90
9881;DHT22;4979;51.014;6.678;2022-10-16T16:54:21;17.30;99.90
9881;DHT22;4979;51.014;6.678;2022-10-16T16:56:47;17.30;99.90
9881;DHT22;4979;51.014;6.678;2022-10-16T16:59:16;17.20;99.90
9881;DHT22;4979;51.014;6.678;2022-10-16T17:01:42;17.20;99.90
9881;DHT22;4979;51.014;6.678;2022-10-16T17:04:08;17.20;99.90
9881;DHT22;4979;51.014;6.678;2022-10-16T17:06:33;17.20;99.90
9881;DHT22;4979;51.014;6.678;2022-10-16T17:09:01;17.20;99.90
9881;DHT22;4979;51.014;6.678;2022-10-16T17:11:28;17.20;99.90
9881;DHT22;4979;51.014;6.678;2022-10-16T17:13:55;17.20;99.90
9881;DHT22;4979;51.014;6.678;2022-10-16T17:16:26;17.10;99.90
9881;DHT22;4979;51.014;6.678;2022-10-16T17:18:53;17.20;99.90
9881;DHT22;4979;51.014;6.678;2022-10-16T17:21:19;17.20;99.90
9881;DHT22;4979;51.014;6.678;2022-10-16T17:23:45;17.20;99.90
9881;DHT22;4979;51.014;6.678;2022-10-16T17:26:15;17.10;99.90
9881;DHT22;4979;51.014;6.678;2022-10-16T17:28:42;17.10;99.90
9881;DHT22;4979;51.014;6.678;2022-10-16T17:31:09;17.10;99.90
9881;DHT22;4979;51.014;6.678;2022-10-16T17:33:36;17.10;99.90
9881;DHT22;4979;51.014;6.678;2022-10-16T17:36:01;17.10;99.90
9881;DHT22;4979;51.014;6.678;2022-10-16T17:38:27;17.10;99.90
9881;DHT22;4979;51.014;6.678;2022-10-16T17:40:53;17.10;99.90
9881;DHT22;4979;51.014;6.678;2022-10-16T17:43:18;17.10;99.90
9881;DHT22;4979;51.014;6.678;2022-10-16T17:45:44;17.10;99.90
9881;DHT22;4979;51.014;6.678;2022-10-16T17:48:09;17.00;99.90
9881;DHT22;4979;51.014;6.678;2022-10-16T17:50:39;17.00;99.90
9881;DHT22;4979;51.014;6.678;2022-10-16T17:53:05;17.00;99.90
9881;DHT22;4979;51.014;6.678;2022-10-16T17:55:30;17.00;99.90
9881;DHT22;4979;51.014;6.678;2022-10-16T17:57:56;16.30;99.90
9881;DHT22;4979;51.014;6.678;2022-10-16T18:00:21;17.00;99.90
9881;DHT22;4979;51.014;6.678;2022-10-16T18:02:50;17.00;99.90
9881;DHT22;4979;51.014;6.678;2022-10-16T18:05:16;16.90;99.90
9881;DHT22;4979;51.014;6.678;2022-10-16T18:07:41;17.00;99.90
9881;DHT22;4979;51.014;6.678;2022-10-16T18:10:07;16.90;99.90
9881;DHT22;4979;51.014;6.678;2022-10-16T18:12:34;16.90;99.90
9881;DHT22;4979;51.014;6.678;2022-10-16T18:14:59;16.90;99.90
9881;DHT22;4979;51.014;6.678;2022-10-16T18:17:25;16.90;99.90
9881;DHT22;4979;51.014;6.678;2022-10-16T18:19:50;16.80;99.90
9881;DHT22;4979;51.014;6.678;2022-10-16T18:22:16;16.90;99.90
9881;DHT22;4979;51.014;6.678;2022-10-16T18:24:42;16.90;99.90